Time;durP1;ratioP1;P1;durP2;ratioP2;P2;SDS_P1;SDS_P2;PMS_P1;PMS_P2;Temp;Humidity;BMP_temperature;BMP_pressure;BME280_temperature;BME280_humidity;BME280_pressure;Samples;Min_cycle;Max_cycle;Signal;HPM_P1;HPM_P2
2023/06/08 00:00:08;;;;;;;8.30;4.18;;;;;;;10.10;50.93;102084.16;4963228;28;20046;-70
2023/06/08 00:02:37;;;;;;;9.18;4.00;;;;;;;10.10;51.06;102085.06;4963426;28;20038;-72
2023/06/08 00:05:03;;;;;;;7.97;3.45;;;;;;;10.00;50.85;102089.56;4963478;28;20405;-73
2023/06/08 00:07:34;;;;;;;6.65;3.22;;;;;;;10.12;50.48;102098.91;4965619;28;20615;-73
2023/06/08 00:10:00;;;;;;;12.60;3.78;;;;;;;10.32;49.82;102084.63;4965562;28;20045;-73
2023/06/08 00:12:25;;;;;;;10.48;3.53;;;;;;;10.32;50.08;102084.63;4962660;28;20102;-71
2023/06/08 00:14:51;;;;;;;9.45;3.42;;;;;;;10.29;50.42;102082.09;4961201;28;20046;-71
2023/06/08 00:17:19;;;;;;;10.85;3.42;;;;;;;10.38;50.13;102079.28;4963148;28;21004;-71
2023/06/08 00:19:45;;;;;;;12.20;3.60;;;;;;;10.20;50.80;102080.50;4945453;28;20049;-71
2023/06/08 00:22:13;;;;;;;14.13;3.25;;;;;;;10.43;50.19;102075.66;4967016;28;20034;-71
2023/06/08 00:24:39;;;;;;;13.98;3.97;;;;;;;10.40;49.96;102077.50;4962508;28;20046;-71
2023/06/08 00:27:06;;;;;;;11.02;3.10;;;;;;;10.37;49.41;102069.69;4963943;28;20152;-72
2023/06/08 00:29:33;;;;;;;10.65;3.53;;;;;;;10.28;49.89;102067.28;4952931;28;20050;-72
2023/06/08 00:31:59;;;;;;;12.60;4.00;;;;;;;10.32;50.42;102074.16;4950311;28;20041;-74
2023/06/08 00:34:27;;;;;;;12.82;3.85;;;;;;;10.21;50.49;102077.88;4963519;28;20035;-70
2023/06/08 00:36:55;;;;;;;16.75;4.00;;;;;;;10.28;50.09;102072.50;4945058;28;20430;-75
2023/06/08 00:39:21;;;;;;;10.10;3.13;;;;;;;10.25;49.83;102070.81;4959925;28;20037;-75
2023/06/08 00:41:49;;;;;;;9.88;3.47;;;;;;;10.29;50.04;102066.41;4946731;28;20121;-72
2023/06/08 00:44:17;;;;;;;9.45;3.47;;;;;;;10.39;49.95;102060.97;4947616;28;20053;-74
2023/06/08 00:46:42;;;;;;;13.65;3.63;;;;;;;10.40;49.65;102067.03;4964308;28;20471;-75
2023/06/08 00:49:15;;;;;;;10.93;3.17;;;;;;;10.48;49.49;102059.03;4963937;28;20050;-74
2023/06/08 00:51:47;;;;;;;13.40;3.90;;;;;;;10.43;49.78;102069.59;4954703;28;20046;-75
2023/06/08 00:54:14;;;;;;;10.25;3.38;;;;;;;10.50;49.91;102065.94;4962015;28;20042;-75
2023/06/08 00:56:41;;;;;;;12.40;4.55;;;;;;;10.38;50.00;102067.06;4962701;28;20484;-74
2023/06/08 00:59:10;;;;;;;12.98;3.72;;;;;;;10.43;49.71;102059.13;4945612;28;20030;-74
2023/06/08 01:01:38;;;;;;;9.40;3.78;;;;;;;10.58;49.37;102057.97;4960708;28;20404;-71
2023/06/08 01:04:08;;;;;;;13.20;3.90;;;;;;;10.68;49.05;102056.00;4961091;28;20229;-72
2023/06/08 01:06:44;;;;;;;11.90;3.63;;;;;;;10.60;49.54;102057.03;4959970;28;20034;-72
2023/06/08 01:09:21;;;;;;;13.77;3.83;;;;;;;10.52;49.46;102058.09;4962701;28;20941;-70
2023/06/08 01:12:06;;;;;;;15.68;3.83;;;;;;;10.67;49.49;102054.28;4964755;28;20040;-71
2023/06/08 01:14:52;;;;;;;11.57;4.00;;;;;;;10.64;49.22;102056.06;4940772;28;20412;-73
2023/06/08 01:17:24;;;;;;;9.32;3.33;;;;;;;10.48;50.21;102049.47;4963656;28;20070;-75
2023/06/08 01:20:07;;;;;;;13.02;3.50;;;;;;;10.70;49.27;102055.06;4945244;28;20053;-75
2023/06/08 01:22:44;;;;;;;8.57;4.25;;;;;;;10.30;50.79;102053.28;4943202;28;20085;-73
2023/06/08 01:25:11;;;;;;;7.97;5.13;;;;;;;10.54;49.71;102057.16;4953349;28;20847;-72
2023/06/08 01:27:38;;;;;;;13.15;4.88;;;;;;;10.47;49.42;102062.56;4959413;28;20042;-74
2023/06/08 01:30:05;;;;;;;19.90;5.72;;;;;;;10.24;49.49;102060.41;4961658;28;20133;-73
2023/06/08 01:32:31;;;;;;;13.10;5.32;;;;;;;10.11;49.60;102050.19;4961169;28;20048;-75
2023/06/08 01:34:56;;;;;;;11.73;5.05;;;;;;;10.20;50.07;102050.00;4960652;28;20782;-74
2023/06/08 01:37:29;;;;;;;16.98;5.18;;;;;;;10.28;50.18;102056.81;4959538;28;20104;-76
2023/06/08 01:40:17;;;;;;;12.93;4.90;;;;;;;10.27;49.93;102049.91;4940309;28;20074;-75
2023/06/08 01:42:47;;;;;;;11.55;4.85;;;;;;;10.31;49.53;102048.94;4957631;28;20982;-74
2023/06/08 01:45:21;;;;;;;19.23;4.78;;;;;;;10.06;50.87;102048.53;4948722;28;20027;-74
2023/06/08 01:48:02;;;;;;;14.13;5.05;;;;;;;10.34;50.14;102046.25;4944797;28;20180;-76
2023/06/08 01:50:28;;;;;;;9.52;5.45;;;;;;;10.28;50.05;102049.00;4963025;28;20045;-73
2023/06/08 01:52:55;;;;;;;16.67;4.53;;;;;;;10.53;49.78;102058.06;4944913;28;20558;-72
2023/06/08 01:55:21;;;;;;;13.07;6.13;;;;;;;10.43;49.92;102051.28;4970645;28;20045;-72
2023/06/08 01:57:47;;;;;;;11.95;5.70;;;;;;;10.56;50.12;102050.16;4947225;28;20026;-74
2023/06/08 02:00:15;;;;;;;14.32;5.93;;;;;;;10.62;49.54;102052.63;4954154;28;20859;-72
2023/06/08 02:02:41;;;;;;;12.90;5.65;;;;;;;10.60;49.34;102049.19;4959856;28;20046;-73
2023/06/08 02:05:12;;;;;;;17.13;5.40;;;;;;;10.70;49.26;102043.75;4936092;28;20113;-73
2023/06/08 02:07:38;;;;;;;13.77;6.28;;;;;;;10.59;49.64;102042.25;4960790;28;20034;-74
2023/06/08 02:10:05;;;;;;;12.48;4.80;;;;;;;10.54;49.62;102041.47;4957516;28;20129;-72
2023/06/08 02:12:31;;;;;;;9.82;5.10;;;;;;;10.35;50.16;102032.31;4946200;28;20034;-72
2023/06/08 02:14:57;;;;;;;10.15;5.70;;;;;;;10.63;49.22;102033.44;4964361;28;20068;-72
2023/06/08 02:17:33;;;;;;;10.07;4.13;;;;;;;10.63;49.53;102040.41;4947787;28;20125;-72
2023/06/08 02:20:06;;;;;;;8.05;3.63;;;;;;;10.39;50.09;102040.06;4966700;28;20037;-73
2023/06/08 02:22:33;;;;;;;10.82;4.05;;;;;;;10.42;49.29;102045.22;4946013;28;20177;-72
2023/06/08 02:25:01;;;;;;;12.30;4.15;;;;;;;10.22;50.29;102045.63;4949833;28;20173;-76
2023/06/08 02:27:27;;;;;;;14.55;3.88;;;;;;;10.42;49.62;102037.38;4963019;28;20098;-74
2023/06/08 02:29:54;;;;;;;8.48;3.33;;;;;;;10.44;49.53;102047.81;4963650;28;20744;-74
2023/06/08 02:32:20;;;;;;;12.27;3.42;;;;;;;10.43;49.58;102057.38;4946753;28;21042;-73
2023/06/08 02:34:53;;;;;;;5.90;2.20;;;;;;;10.12;50.76;102051.91;4963840;28;20043;-70
2023/06/08 02:37:19;;;;;;;10.07;2.72;;;;;;;10.46;49.63;102043.41;4965482;28;20030;-72
2023/06/08 02:39:46;;;;;;;7.68;2.58;;;;;;;10.35;50.19;102053.22;4960800;28;20855;-73
2023/06/08 02:42:13;;;;;;;9.63;3.55;;;;;;;10.51;50.12;102049.38;4979965;28;20034;-72
2023/06/08 02:44:43;;;;;;;10.25;3.53;;;;;;;10.69;49.71;102048.13;4944293;28;20046;-69
2023/06/08 02:47:09;;;;;;;9.27;3.58;;;;;;;10.88;49.30;102052.97;4945953;28;20030;-71
2023/06/08 02:49:35;;;;;;;13.48;3.25;;;;;;;10.89;49.17;102052.09;4961142;28;20542;-69
2023/06/08 02:52:00;;;;;;;22.40;4.38;;;;;;;10.93;49.03;102053.72;4963977;28;20030;-72
2023/06/08 02:54:26;;;;;;;13.18;3.28;;;;;;;10.64;49.61;102050.84;4949505;28;20049;-75
2023/06/08 02:56:51;;;;;;;16.70;4.13;;;;;;;10.75;49.09;102057.59;4948949;28;20030;-74
2023/06/08 02:59:19;;;;;;;7.45;3.28;;;;;;;10.59;49.73;102050.09;4962822;28;20093;-74
2023/06/08 03:01:53;;;;;;;11.15;4.05;;;;;;;10.54;49.92;102053.69;4941317;28;20084;-74
2023/06/08 03:04:25;;;;;;;13.25;3.60;;;;;;;10.53;49.35;102045.00;4948660;28;20085;-70
2023/06/08 03:06:56;;;;;;;8.27;2.90;;;;;;;10.62;49.36;102046.56;4957619;28;20113;-73
2023/06/08 03:09:28;;;;;;;16.50;4.65;;;;;;;10.58;49.33;102048.34;4963940;28;20587;-73
2023/06/08 03:11:55;;;;;;;14.93;2.70;;;;;;;10.65;48.98;102046.47;4946547;28;20101;-71
2023/06/08 03:14:28;;;;;;;7.07;3.28;;;;;;;10.66;49.35;102045.59;4965910;28;20444;-76
2023/06/08 03:17:01;;;;;;;10.52;3.03;;;;;;;10.72;49.58;102052.44;4964034;28;20598;-73
2023/06/08 03:19:30;;;;;;;10.95;3.22;;;;;;;10.70;49.54;102049.84;4960469;28;20042;-72
2023/06/08 03:22:02;;;;;;;11.68;2.78;;;;;;;10.75;48.85;102047.13;4963977;28;20108;-72
2023/06/08 03:24:33;;;;;;;16.23;2.97;;;;;;;10.52;49.34;102040.63;4953704;28;20096;-71
2023/06/08 03:27:00;;;;;;;8.45;3.58;;;;;;;10.34;49.79;102051.47;4967946;28;20097;-76
2023/06/08 03:29:26;;;;;;;7.53;3.38;;;;;;;10.22;50.74;102047.38;4948888;28;20541;-74
2023/06/08 03:31:53;;;;;;;11.75;3.53;;;;;;;10.22;50.74;102047.38;4963299;28;21584;-70
2023/06/08 03:34:25;;;;;;;10.52;4.07;;;;;;;10.20;50.37;102034.31;4964447;28;20522;-74
2023/06/08 03:36:54;;;;;;;18.17;3.83;;;;;;;10.40;50.34;102038.31;4949808;28;20061;-77
2023/06/08 03:39:23;;;;;;;11.45;3.78;;;;;;;10.36;50.33;102039.25;4961385;28;20642;-79
2023/06/08 03:41:48;;;;;;;9.90;2.38;;;;;;;10.39;50.16;102032.22;4951358;28;20030;-80
2023/06/08 03:44:15;;;;;;;7.63;2.85;;;;;;;10.42;49.78;102033.91;4960725;28;20352;-74
2023/06/08 03:46:41;;;;;;;11.80;2.75;;;;;;;10.22;50.53;102032.56;4963401;28;20766;-71
2023/06/08 03:49:06;;;;;;;14.02;2.72;;;;;;;10.27;49.41;102029.00;4962824;28;20050;-74
2023/06/08 03:51:33;;;;;;;11.57;2.70;;;;;;;10.18;50.48;102030.88;4961730;28;20046;-74
2023/06/08 03:53:59;;;;;;;5.97;2.25;;;;;;;9.92;50.83;102027.91;4964436;28;20808;-75
2023/06/08 03:56:27;;;;;;;8.32;2.20;;;;;;;10.11;50.55;102023.22;4965545;28;20054;-75
2023/06/08 03:58:53;;;;;;;10.80;3.83;;;;;;;10.22;50.57;102027.31;4947199;28;20894;-74
2023/06/08 04:01:22;;;;;;;11.07;2.97;;;;;;;10.29;49.95;102016.75;4963424;28;20168;-74
2023/06/08 04:03:50;;;;;;;13.98;3.58;;;;;;;10.09;50.50;102020.63;4947946;28;20046;-77
2023/06/08 04:06:18;;;;;;;9.13;2.78;;;;;;;9.96;51.03;102026.97;4955974;28;20035;-78
2023/06/08 04:08:44;;;;;;;6.53;2.03;;;;;;;10.29;50.23;102022.84;4968217;28;20472;-79
2023/06/08 04:11:12;;;;;;;7.72;2.95;;;;;;;10.34;50.31;102025.34;4958730;28;20482;-78
2023/06/08 04:13:39;;;;;;;7.03;3.15;;;;;;;9.94;51.77;102027.00;4970229;28;20042;-74
2023/06/08 04:16:09;;;;;;;14.02;3.78;;;;;;;10.09;51.24;102025.84;4950073;28;20064;-79
2023/06/08 04:18:42;;;;;;;8.93;2.45;;;;;;;10.37;49.97;102028.78;4955959;28;20045;-74
2023/06/08 04:21:11;;;;;;;10.10;3.35;;;;;;;10.24;50.26;102042.13;4966973;28;20034;-77
2023/06/08 04:23:38;;;;;;;15.57;4.07;;;;;;;10.28;50.41;102031.56;4960554;28;20111;-76
2023/06/08 04:26:07;;;;;;;8.95;3.28;;;;;;;10.21;50.62;102028.22;4967861;28;20393;-74
2023/06/08 04:28:35;;;;;;;7.63;3.15;;;;;;;10.28;50.80;102026.34;4945136;28;20074;-73
2023/06/08 04:31:04;;;;;;;16.85;4.45;;;;;;;10.15;50.82;102025.72;4973591;28;20123;-72
2023/06/08 04:33:34;;;;;;;13.15;3.10;;;;;;;10.15;50.99;102030.97;4944100;28;21656;-74
2023/06/08 04:36:03;;;;;;;13.40;4.07;;;;;;;10.12;50.70;102028.38;4951013;28;20082;-75
2023/06/08 04:38:30;;;;;;;8.45;2.92;;;;;;;10.23;50.52;102030.78;4959040;28;20045;-74
2023/06/08 04:40:56;;;;;;;7.78;3.00;;;;;;;10.40;50.42;102028.69;4959528;28;20782;-76
2023/06/08 04:43:34;;;;;;;7.38;3.88;;;;;;;10.43;50.28;102031.25;4964788;28;20093;-78
2023/06/08 04:46:12;;;;;;;12.63;3.20;;;;;;;10.46;49.63;102029.44;4967780;28;20036;-76
2023/06/08 04:48:38;;;;;;;8.52;2.38;;;;;;;10.29;50.23;102045.50;4945283;28;20045;-69
2023/06/08 04:51:04;;;;;;;7.82;2.67;;;;;;;10.38;48.97;102043.56;4961711;28;20290;-71
2023/06/08 04:53:33;;;;;;;9.30;2.90;;;;;;;10.62;49.17;102036.94;4943678;28;20034;-75
2023/06/08 04:56:02;;;;;;;4.38;2.28;;;;;;;10.57;48.98;102036.19;4962932;28;20092;-74
2023/06/08 04:58:29;;;;;;;8.10;3.60;;;;;;;10.79;48.44;102028.75;4960566;28;20141;-67
2023/06/08 05:00:56;;;;;;;8.15;2.17;;;;;;;10.75;48.44;102032.31;4960173;28;20124;-68
2023/06/08 05:03:22;;;;;;;11.48;3.45;;;;;;;10.72;48.45;102027.13;4960513;28;20096;-71
2023/06/08 05:05:50;;;;;;;14.25;2.65;;;;;;;10.63;48.74;102028.19;4942663;28;20042;-71
2023/06/08 05:08:16;;;;;;;10.20;3.28;;;;;;;10.67;48.91;102028.16;4955599;28;20334;-68
2023/06/08 05:10:41;;;;;;;9.10;2.88;;;;;;;10.56;49.00;102031.00;4942502;28;20153;-68
2023/06/08 05:13:07;;;;;;;10.90;3.72;;;;;;;10.52;49.35;102022.34;4960841;28;20038;-68
2023/06/08 05:15:33;;;;;;;8.85;3.17;;;;;;;10.42;49.94;102024.31;4960588;28;20700;-69
2023/06/08 05:17:59;;;;;;;9.35;3.35;;;;;;;10.57;49.61;102028.34;4959219;28;20114;-68
2023/06/08 05:20:26;;;;;;;10.18;3.35;;;;;;;10.63;49.76;102027.34;4945875;28;20041;-66
2023/06/08 05:22:53;;;;;;;10.27;3.22;;;;;;;10.73;49.43;102028.03;4957011;28;20038;-67
2023/06/08 05:25:19;;;;;;;10.40;3.30;;;;;;;10.27;49.58;102039.44;4977035;28;20037;-71
2023/06/08 05:27:45;;;;;;;7.35;3.47;;;;;;;10.13;50.03;102035.34;4956426;28;20026;-71
2023/06/08 05:30:11;;;;;;;10.63;2.78;;;;;;;10.36;49.19;102028.78;4961227;28;20525;-72
2023/06/08 05:32:37;;;;;;;11.85;4.15;;;;;;;10.45;49.28;102017.28;4960205;28;20491;-72
2023/06/08 05:35:03;;;;;;;6.38;2.15;;;;;;;10.64;48.97;102034.31;4958259;28;20065;-72
2023/06/08 05:37:30;;;;;;;10.18;2.35;;;;;;;11.09;47.67;102018.50;4958535;28;20038;-72
2023/06/08 05:39:56;;;;;;;13.57;3.22;;;;;;;11.37;47.58;102021.25;4957859;28;20676;-70
2023/06/08 05:42:21;;;;;;;10.30;3.25;;;;;;;11.29;47.25;102023.25;4958353;28;20365;-67
2023/06/08 05:44:47;;;;;;;10.80;3.38;;;;;;;11.34;46.70;102029.22;4953652;28;20049;-69
2023/06/08 05:47:13;;;;;;;12.65;3.45;;;;;;;11.54;46.56;102018.22;4946112;28;20034;-70
2023/06/08 05:49:40;;;;;;;12.85;4.18;;;;;;;11.79;45.93;102018.47;4958528;28;20411;-70
2023/06/08 05:52:06;;;;;;;10.80;3.20;;;;;;;11.74;45.64;102016.84;4952376;28;20066;-69
2023/06/08 05:54:31;;;;;;;9.73;3.00;;;;;;;11.41;46.72;102016.81;4962557;28;20121;-66
2023/06/08 05:56:57;;;;;;;11.50;2.45;;;;;;;11.66;45.71;102022.28;4956720;28;20315;-66
2023/06/08 05:59:23;;;;;;;8.60;3.17;;;;;;;11.79;46.05;102021.09;4960906;28;20695;-71
2023/06/08 06:01:50;;;;;;;18.42;3.17;;;;;;;12.19;45.34;102024.38;4944236;28;20895;-68
2023/06/08 06:04:16;;;;;;;8.98;2.72;;;;;;;12.22;45.28;102025.16;4961417;28;20069;-64
2023/06/08 06:06:42;;;;;;;8.27;3.47;;;;;;;12.07;44.97;102022.97;4961313;28;20120;-67
2023/06/08 06:09:08;;;;;;;10.98;3.35;;;;;;;12.10;45.28;102022.88;4959893;28;20064;-63
2023/06/08 06:11:34;;;;;;;9.15;3.22;;;;;;;12.19;44.97;102012.13;4959869;28;20034;-65
2023/06/08 06:14:01;;;;;;;16.95;3.97;;;;;;;12.23;45.89;102019.00;4959308;28;20404;-66
2023/06/08 06:16:27;;;;;;;7.07;2.88;;;;;;;12.53;44.08;102019.00;4960896;28;20511;-67
2023/06/08 06:18:53;;;;;;;17.20;2.67;;;;;;;13.43;42.02;102015.28;4950642;28;20047;-68
2023/06/08 06:21:19;;;;;;;14.18;3.40;;;;;;;13.22;42.81;102018.63;4962375;28;20030;-67
2023/06/08 06:23:45;;;;;;;14.65;2.65;;;;;;;13.47;42.60;102018.66;4960534;28;20042;-69
2023/06/08 06:26:11;;;;;;;8.73;2.08;;;;;;;13.32;42.53;102017.41;4961972;28;20035;-67
2023/06/08 06:28:38;;;;;;;6.78;2.08;;;;;;;12.96;43.00;102012.47;4967826;28;20054;-67
2023/06/08 06:31:04;;;;;;;13.00;3.03;;;;;;;12.93;43.72;102015.16;4962127;28;20914;-65
2023/06/08 06:33:30;;;;;;;10.38;3.47;;;;;;;12.68;45.01;102010.66;4962218;28;20058;-68
2023/06/08 06:35:56;;;;;;;12.27;3.15;;;;;;;13.23;43.79;102007.22;4958685;28;20109;-67
2023/06/08 06:38:22;;;;;;;16.55;2.55;;;;;;;13.73;42.52;102010.75;4961280;28;20129;-69
2023/06/08 06:40:50;;;;;;;10.95;3.90;;;;;;;13.80;41.71;102016.66;4962389;28;20038;-68
2023/06/08 06:43:16;;;;;;;5.78;3.17;;;;;;;13.75;42.13;102015.97;4959515;28;20377;-69
2023/06/08 06:45:51;;;;;;;8.90;3.28;;;;;;;15.68;37.76;102007.53;4952855;28;20434;-67
2023/06/08 06:48:20;;;;;;;11.75;2.75;;;;;;;15.98;36.67;102012.38;4956933;28;20523;-67
2023/06/08 06:50:46;;;;;;;9.45;3.10;;;;;;;16.18;36.02;102014.16;4962335;28;20100;-64
2023/06/08 06:53:12;;;;;;;11.18;2.88;;;;;;;15.99;36.57;102011.44;4973178;28;20614;-70
2023/06/08 06:55:38;;;;;;;14.50;3.03;;;;;;;16.20;36.86;102001.75;4961559;28;20294;-68
2023/06/08 06:58:04;;;;;;;11.75;3.33;;;;;;;16.75;36.07;101993.88;4958219;28;20160;-69
2023/06/08 07:00:32;;;;;;;8.40;1.90;;;;;;;16.69;36.24;102012.63;4961386;28;20034;-68
2023/06/08 07:02:58;;;;;;;11.90;2.38;;;;;;;17.31;34.96;102017.56;4958545;28;20109;-66
2023/06/08 07:05:23;;;;;;;8.95;2.65;;;;;;;17.15;33.92;102018.31;4963287;28;20131;-66
2023/06/08 07:07:49;;;;;;;9.18;2.28;;;;;;;16.45;35.19;102019.09;4963519;28;20088;-68
2023/06/08 07:10:15;;;;;;;5.93;2.17;;;;;;;15.54;36.99;102021.31;4954942;28;20050;-68
2023/06/08 07:12:41;;;;;;;13.55;3.10;;;;;;;15.75;37.96;102016.91;4961509;28;20038;-67
2023/06/08 07:15:07;;;;;;;12.80;2.60;;;;;;;16.40;36.19;102017.50;4958502;28;20042;-68
2023/06/08 07:17:33;;;;;;;7.93;2.53;;;;;;;16.46;36.21;102007.59;4962205;28;20040;-65
2023/06/08 07:19:59;;;;;;;10.40;2.28;;;;;;;16.14;36.65;102015.22;4960889;28;20046;-67
2023/06/08 07:22:24;;;;;;;7.85;2.10;;;;;;;16.14;35.87;102018.69;4962548;28;20040;-66
2023/06/08 07:24:50;;;;;;;10.25;2.13;;;;;;;18.23;33.25;102004.88;4962335;28;20051;-68
2023/06/08 07:27:15;;;;;;;10.85;2.00;;;;;;;18.44;32.90;102006.31;4960533;28;20038;-67
2023/06/08 07:29:42;;;;;;;13.82;2.20;;;;;;;19.50;31.47;102005.53;4955597;28;20042;-68
2023/06/08 07:32:10;;;;;;;13.20;2.08;;;;;;;20.63;30.40;102010.03;4961633;28;20102;-68
2023/06/08 07:34:36;;;;;;;7.18;1.73;;;;;;;20.29;29.74;102016.66;4958046;28;20042;-68
2023/06/08 07:37:01;;;;;;;5.70;2.15;;;;;;;19.75;30.39;102013.78;4961438;28;20428;-66
2023/06/08 07:39:27;;;;;;;8.73;2.55;;;;;;;18.87;31.71;102006.53;4959339;28;20046;-68
2023/06/08 07:41:52;;;;;;;11.80;2.30;;;;;;;18.80;31.76;102022.88;4963643;28;20112;-67
2023/06/08 07:44:18;;;;;;;6.13;1.85;;;;;;;18.60;31.71;102021.34;4960662;28;20500;-68
2023/06/08 07:46:44;;;;;;;8.00;2.28;;;;;;;17.52;33.84;102029.72;4961463;28;20062;-68
2023/06/08 07:49:09;;;;;;;6.63;1.48;;;;;;;16.77;35.07;102031.63;4961036;28;20042;-67
2023/06/08 07:51:35;;;;;;;6.88;1.65;;;;;;;17.49;34.76;102035.16;4959386;28;20058;-66
2023/06/08 07:54:00;;;;;;;8.50;1.80;;;;;;;17.93;33.28;102033.78;4961690;28;20156;-68
2023/06/08 07:56:26;;;;;;;5.57;2.08;;;;;;;17.44;33.41;102031.84;4960914;28;20195;-66
2023/06/08 07:58:51;;;;;;;6.53;2.08;;;;;;;16.99;34.83;102031.44;4963267;28;20042;-67
2023/06/08 08:01:17;;;;;;;8.73;2.50;;;;;;;17.23;34.86;102033.81;4970473;28;20030;-66
2023/06/08 08:03:42;;;;;;;12.05;1.98;;;;;;;16.49;36.42;102033.81;4960533;28;20918;-68
2023/06/08 08:06:07;;;;;;;11.55;2.65;;;;;;;16.29;36.56;102040.91;4961174;28;20205;-68
2023/06/08 08:08:33;;;;;;;7.50;2.53;;;;;;;16.88;35.23;102035.53;4957278;28;20501;-67
2023/06/08 08:10:58;;;;;;;5.63;2.28;;;;;;;16.52;36.14;102033.69;4964011;28;20042;-67
2023/06/08 08:13:24;;;;;;;13.32;2.38;;;;;;;18.90;32.64;102026.75;4959932;28;20050;-67
2023/06/08 08:15:50;;;;;;;10.10;1.67;;;;;;;19.70;31.05;102017.59;4962988;28;20038;-68
2023/06/08 08:18:15;;;;;;;6.95;1.70;;;;;;;19.55;31.10;102023.84;4957515;28;20129;-66
2023/06/08 08:20:41;;;;;;;9.70;2.28;;;;;;;19.11;31.43;102021.97;4961270;28;20951;-67
2023/06/08 08:23:07;;;;;;;9.98;2.60;;;;;;;18.84;31.99;102019.94;4955621;28;20616;-67
2023/06/08 08:25:34;;;;;;;10.73;2.95;;;;;;;18.06;33.41;102019.81;4958713;28;20436;-67
2023/06/08 08:28:00;;;;;;;9.25;2.40;;;;;;;17.89;34.93;102011.06;4955809;28;20057;-65
2023/06/08 08:30:26;;;;;;;6.93;2.72;;;;;;;18.27;34.05;102016.97;4956751;28;20092;-67
2023/06/08 08:32:51;;;;;;;7.70;2.20;;;;;;;20.25;31.39;102020.44;4959530;28;20038;-68
2023/06/08 08:35:17;;;;;;;11.68;2.20;;;;;;;18.82;32.79;102007.75;4958510;28;20088;-69
2023/06/08 08:37:42;;;;;;;5.32;2.78;;;;;;;18.93;32.23;102009.81;4959048;28;20507;-67
2023/06/08 08:40:09;;;;;;;9.82;2.90;;;;;;;19.45;31.53;102019.97;4958214;28;20758;-68
2023/06/08 08:42:41;;;;;;;10.13;2.92;;;;;;;19.56;30.98;102014.06;4957693;28;20120;-69
2023/06/08 08:45:09;;;;;;;10.45;2.95;;;;;;;20.94;29.22;102011.53;4958190;28;20038;-68
2023/06/08 08:47:37;;;;;;;10.30;2.28;;;;;;;21.28;30.08;102019.91;4957459;28;20030;-69
2023/06/08 08:50:06;;;;;;;11.45;2.35;;;;;;;21.41;28.10;102019.09;4956687;28;20096;-68
2023/06/08 08:52:37;;;;;;;7.88;3.13;;;;;;;21.72;28.03;102018.69;4956130;28;20095;-69
2023/06/08 08:55:06;;;;;;;6.40;2.70;;;;;;;22.28;27.65;102025.47;4957594;28;20125;-67
2023/06/08 08:57:32;;;;;;;10.98;2.47;;;;;;;22.88;26.55;102021.13;4958932;28;20708;-67
2023/06/08 08:59:59;;;;;;;12.20;2.50;;;;;;;22.29;27.03;102021.81;4958238;28;20134;-68
2023/06/08 09:02:26;;;;;;;6.45;2.17;;;;;;;22.03;27.52;102026.34;4955346;28;20085;-68
2023/06/08 09:04:52;;;;;;;7.03;2.05;;;;;;;21.57;27.53;102025.06;4957887;28;20057;-68
2023/06/08 09:07:19;;;;;;;8.98;2.70;;;;;;;22.07;27.08;102019.81;4957818;28;20171;-69
2023/06/08 09:10:12;;;;;;;13.30;3.30;;;;;;;22.62;26.40;102023.00;4957842;28;20065;-67
2023/06/08 09:12:43;;;;;;;7.22;2.13;;;;;;;22.56;27.14;102014.50;4956882;28;20061;-68
2023/06/08 09:15:11;;;;;;;8.02;2.13;;;;;;;22.30;27.30;102015.56;4958313;28;20030;-69
2023/06/08 09:17:38;;;;;;;5.50;2.35;;;;;;;23.11;25.52;102020.22;4957723;28;20138;-68
2023/06/08 09:20:08;;;;;;;7.30;2.05;;;;;;;22.99;25.82;102011.34;4957313;28;20041;-68
2023/06/08 09:22:37;;;;;;;10.05;2.35;;;;;;;22.40;26.97;102016.56;4958458;28;20215;-69
2023/06/08 09:25:07;;;;;;;6.72;1.63;;;;;;;21.65;27.60;102016.59;4960843;28;20720;-68
2023/06/08 09:27:32;;;;;;;9.32;2.90;;;;;;;22.30;26.87;102012.91;4963215;28;20121;-68
2023/06/08 09:30:00;;;;;;;5.75;2.25;;;;;;;21.12;28.20;102016.59;4958558;28;20061;-69
2023/06/08 09:32:33;;;;;;;9.23;2.33;;;;;;;20.98;28.47;102009.53;4959740;28;20038;-69
2023/06/08 09:35:01;;;;;;;8.68;2.08;;;;;;;21.13;28.72;102010.31;4961588;28;20830;-69
2023/06/08 09:37:29;;;;;;;8.55;2.08;;;;;;;20.50;29.07;102017.91;4959864;28;20049;-72
2023/06/08 09:39:56;;;;;;;14.55;2.83;;;;;;;20.37;29.33;102005.53;4962384;28;20742;-72
2023/06/08 09:42:22;;;;;;;8.35;2.72;;;;;;;19.76;30.46;102010.22;4958737;28;20042;-71
2023/06/08 09:44:47;;;;;;;9.95;2.25;;;;;;;19.34;31.40;102014.47;4960382;28;20093;-70
2023/06/08 09:47:27;;;;;;;7.97;2.45;;;;;;;18.86;32.10;102006.63;4960229;28;20018;-70
2023/06/08 09:49:55;;;;;;;13.02;2.90;;;;;;;19.05;31.90;102004.63;4963712;28;20042;-70
2023/06/08 09:52:22;;;;;;;10.55;2.17;;;;;;;19.24;32.37;102008.88;4960286;28;20144;-71
2023/06/08 09:54:48;;;;;;;11.07;2.35;;;;;;;18.95;31.96;102013.22;4962834;28;20048;-71
2023/06/08 09:57:15;;;;;;;7.72;2.78;;;;;;;19.27;32.15;102017.47;4958953;28;20037;-70
2023/06/08 10:00:17;;;;;;;9.25;2.80;;;;;;;18.28;33.29;102026.63;4964021;28;20137;-70
2023/06/08 10:03:31;;;;;;;8.52;2.33;;;;;;;17.97;33.44;102015.03;4961941;28;20048;-70
2023/06/08 10:05:59;;;;;;;4.60;1.73;;;;;;;18.36;33.47;102021.75;4941120;28;20237;-69
2023/06/08 10:08:27;;;;;;;9.70;2.65;;;;;;;18.32;34.30;102017.59;4939576;28;20416;-70
2023/06/08 10:10:54;;;;;;;8.93;1.63;;;;;;;18.34;33.08;102018.38;4952780;28;20238;-69
2023/06/08 10:13:21;;;;;;;8.40;2.72;;;;;;;17.88;33.90;102015.50;4961064;28;20077;-70
2023/06/08 10:15:47;;;;;;;6.10;2.00;;;;;;;18.31;33.87;102012.38;4962073;28;20030;-70
2023/06/08 10:18:13;;;;;;;7.90;3.03;;;;;;;18.53;33.89;102009.38;4962765;28;20390;-70
2023/06/08 10:20:39;;;;;;;4.78;1.85;;;;;;;19.05;32.41;102011.72;4960352;28;20912;-70
2023/06/08 10:23:06;;;;;;;11.38;3.53;;;;;;;19.33;32.44;102010.13;4961840;28;20045;-69
2023/06/08 10:25:33;;;;;;;9.60;2.20;;;;;;;19.12;32.34;102017.53;4964020;28;20065;-69
2023/06/08 10:28:08;;;;;;;9.85;2.15;;;;;;;18.92;32.84;102010.72;4961311;28;20035;-69
2023/06/08 10:30:42;;;;;;;7.32;2.50;;;;;;;18.84;33.35;102005.84;4945055;28;20049;-70
2023/06/08 10:33:15;;;;;;;12.07;2.60;;;;;;;19.45;32.46;102001.44;4963999;28;20381;-70
2023/06/08 10:35:42;;;;;;;9.63;2.05;;;;;;;19.82;32.04;102007.19;4960248;28;20046;-70
2023/06/08 10:38:15;;;;;;;11.38;1.95;;;;;;;19.61;34.56;102006.69;4960864;28;20109;-69
2023/06/08 10:40:50;;;;;;;9.13;2.40;;;;;;;19.74;32.50;102012.09;4961093;28;20030;-69
2023/06/08 10:43:16;;;;;;;8.93;2.13;;;;;;;19.29;32.73;102002.34;4975122;28;20117;-69
2023/06/08 10:45:45;;;;;;;7.45;2.42;;;;;;;19.36;32.66;102004.63;4959660;28;20049;-69
2023/06/08 10:48:15;;;;;;;6.18;1.27;;;;;;;19.55;32.37;102007.94;4963316;28;20049;-70
2023/06/08 10:50:45;;;;;;;8.90;2.08;;;;;;;19.70;31.72;102006.13;4966889;28;20594;-69
2023/06/08 10:53:11;;;;;;;5.35;1.75;;;;;;;19.52;32.28;102008.06;4960251;28;20579;-69
2023/06/08 10:55:37;;;;;;;7.38;1.00;;;;;;;20.01;31.94;102010.38;4960455;28;20516;-68
2023/06/08 10:58:16;;;;;;;4.22;1.70;;;;;;;19.37;32.02;102009.84;4964526;28;20030;-69
2023/06/08 11:00:42;;;;;;;3.63;1.35;;;;;;;19.16;32.84;102005.81;4960612;28;20034;-70
2023/06/08 11:03:13;;;;;;;4.90;1.00;;;;;;;19.59;32.89;102008.56;4962086;28;20746;-69
2023/06/08 11:05:44;;;;;;;5.50;1.43;;;;;;;19.35;32.92;102014.38;4960183;28;20030;-69
2023/06/08 11:08:11;;;;;;;3.78;1.15;;;;;;;19.74;33.38;102012.09;4961226;28;20034;-70
2023/06/08 11:10:42;;;;;;;4.30;1.17;;;;;;;19.97;31.17;102008.03;4972196;28;20747;-69
2023/06/08 11:13:12;;;;;;;5.63;1.63;;;;;;;19.33;32.02;101984.47;4961090;28;20030;-70
2023/06/08 11:15:43;;;;;;;5.30;0.90;;;;;;;19.17;32.57;101995.13;4945146;28;20035;-70
2023/06/08 11:18:10;;;;;;;5.55;1.80;;;;;;;19.20;32.61;101984.34;4956463;28;20837;-70
2023/06/08 11:20:37;;;;;;;6.88;1.77;;;;;;;19.14;32.88;101992.63;4955440;28;20036;-68
2023/06/08 11:23:06;;;;;;;7.28;1.75;;;;;;;19.75;32.03;101992.56;4956954;28;20053;-69
2023/06/08 11:25:32;;;;;;;3.50;1.33;;;;;;;19.57;32.16;101994.56;4958702;28;20112;-69